sensor_id;sensor_type;location;lat;lon;timestamp;temperature;humidity
65470;DHT22;52067;50.710;14.492;2022-09-13T00:01:40;9.19;89.25
65470;DHT22;52067;50.710;14.492;2022-09-13T00:04:06;9.22;89.07
65470;DHT22;52067;50.710;14.492;2022-09-13T00:06:31;9.21;88.53
65470;DHT22;52067;50.710;14.492;2022-09-13T00:08:56;9.39;88.20
65470;DHT22;52067;50.710;14.492;2022-09-13T00:11:26;9.47;87.69
65470;DHT22;52067;50.710;14.492;2022-09-13T00:13:53;9.42;87.26
65470;DHT22;52067;50.710;14.492;2022-09-13T00:16:20;9.25;87.71
65470;DHT22;52067;50.710;14.492;2022-09-13T00:18:46;9.19;87.99
65470;DHT22;52067;50.710;14.492;2022-09-13T00:21:15;9.29;87.48
65470;DHT22;52067;50.710;14.492;2022-09-13T00:23:45;9.25;87.28
65470;DHT22;52067;50.710;14.492;2022-09-13T00:26:13;9.11;87.65
65470;DHT22;52067;50.710;14.492;2022-09-13T00:28:39;8.98;88.24
65470;DHT22;52067;50.710;14.492;2022-09-13T00:31:06;9.03;88.02
65470;DHT22;52067;50.710;14.492;2022-09-13T00:33:32;9.12;87.24
65470;DHT22;52067;50.710;14.492;2022-09-13T00:35:57;9.08;86.97
65470;DHT22;52067;50.710;14.492;2022-09-13T00:38:23;9.01;87.72
65470;DHT22;52067;50.710;14.492;2022-09-13T00:40:49;8.88;88.23
65470;DHT22;52067;50.710;14.492;2022-09-13T00:43:17;8.78;88.46
65470;DHT22;52067;50.710;14.492;2022-09-13T00:45:43;8.95;88.18
65470;DHT22;52067;50.710;14.492;2022-09-13T00:48:17;9.08;87.58
65470;DHT22;52067;50.710;14.492;2022-09-13T00:50:49;9.11;87.31
65470;DHT22;52067;50.710;14.492;2022-09-13T00:53:25;9.07;87.14
65470;DHT22;52067;50.710;14.492;2022-09-13T00:56:10;9.07;86.98
65470;DHT22;52067;50.710;14.492;2022-09-13T00:58:40;9.12;86.66
65470;DHT22;52067;50.710;14.492;2022-09-13T01:01:10;8.83;87.25
65470;DHT22;52067;50.710;14.492;2022-09-13T01:03:36;8.97;87.31
65470;DHT22;52067;50.710;14.492;2022-09-13T01:06:07;8.89;87.28
65470;DHT22;52067;50.710;14.492;2022-09-13T01:08:34;8.78;87.50
65470;DHT22;52067;50.710;14.492;2022-09-13T01:11:01;8.74;87.53
65470;DHT22;52067;50.710;14.492;2022-09-13T01:13:30;8.83;87.35
65470;DHT22;52067;50.710;14.492;2022-09-13T01:15:57;8.83;87.13
65470;DHT22;52067;50.710;14.492;2022-09-13T01:18:24;8.70;87.31
65470;DHT22;52067;50.710;14.492;2022-09-13T01:47:56;8.32;88.36
65470;DHT22;52067;50.710;14.492;2022-09-13T01:50:43;8.46;88.50
65470;DHT22;52067;50.710;14.492;2022-09-13T01:56:30;8.68;87.26
65470;DHT22;52067;50.710;14.492;2022-09-13T01:59:14;8.73;87.06
65470;DHT22;52067;50.710;14.492;2022-09-13T02:01:56;8.50;87.73
65470;DHT22;52067;50.710;14.492;2022-09-13T02:04:26;8.45;87.75
65470;DHT22;52067;50.710;14.492;2022-09-13T02:09:22;8.47;87.68
65470;DHT22;52067;50.710;14.492;2022-09-13T02:11:53;8.54;87.15
65470;DHT22;52067;50.710;14.492;2022-09-13T02:14:24;8.24;87.66
65470;DHT22;52067;50.710;14.492;2022-09-13T02:17:08;8.03;89.07
65470;DHT22;52067;50.710;14.492;2022-09-13T02:22:09;8.19;87.94
65470;DHT22;52067;50.710;14.492;2022-09-13T02:24:39;8.09;88.31
65470;DHT22;52067;50.710;14.492;2022-09-13T02:27:09;8.21;88.23
65470;DHT22;52067;50.710;14.492;2022-09-13T02:29:38;8.22;87.63
65470;DHT22;52067;50.710;14.492;2022-09-13T02:34:59;8.15;88.03
65470;DHT22;52067;50.710;14.492;2022-09-13T02:37:26;8.19;87.65
65470;DHT22;52067;50.710;14.492;2022-09-13T02:40:00;8.06;88.20
65470;DHT22;52067;50.710;14.492;2022-09-13T02:42:48;8.13;87.80
65470;DHT22;52067;50.710;14.492;2022-09-13T02:45:14;7.97;88.56
65470;DHT22;52067;50.710;14.492;2022-09-13T02:50:35;8.09;87.86
65470;DHT22;52067;50.710;14.492;2022-09-13T02:55:59;8.18;87.30
65470;DHT22;52067;50.710;14.492;2022-09-13T02:58:45;8.12;87.44
65470;DHT22;52067;50.710;14.492;2022-09-13T03:01:11;7.97;88.48
65470;DHT22;52067;50.710;14.492;2022-09-13T03:03:37;8.10;87.86
65470;DHT22;52067;50.710;14.492;2022-09-13T03:06:03;8.01;87.66
65470;DHT22;52067;50.710;14.492;2022-09-13T03:08:29;8.13;87.56
65470;DHT22;52067;50.710;14.492;2022-09-13T03:19:22;7.74;88.17
65470;DHT22;52067;50.710;14.492;2022-09-13T03:22:23;7.56;88.60
65470;DHT22;52067;50.710;14.492;2022-09-13T03:31:11;7.87;87.98
65470;DHT22;52067;50.710;14.492;2022-09-13T03:36:36;7.87;88.10
65470;DHT22;52067;50.710;14.492;2022-09-13T03:39:15;7.84;88.17
65470;DHT22;52067;50.710;14.492;2022-09-13T03:41:49;7.67;88.71
65470;DHT22;52067;50.710;14.492;2022-09-13T03:44:19;7.78;88.42
65470;DHT22;52067;50.710;14.492;2022-09-13T03:46:48;7.75;88.08
65470;DHT22;52067;50.710;14.492;2022-09-13T03:49:17;7.81;88.41
65470;DHT22;52067;50.710;14.492;2022-09-13T03:51:47;7.89;87.76
65470;DHT22;52067;50.710;14.492;2022-09-13T03:57:16;7.87;87.91
65470;DHT22;52067;50.710;14.492;2022-09-13T03:59:54;7.54;89.16
65470;DHT22;52067;50.710;14.492;2022-09-13T04:02:20;7.67;88.62
65470;DHT22;52067;50.710;14.492;2022-09-13T04:04:47;7.74;88.01
65470;DHT22;52067;50.710;14.492;2022-09-13T04:07:18;7.85;87.95
65470;DHT22;52067;50.710;14.492;2022-09-13T04:09:44;7.85;87.61
65470;DHT22;52067;50.710;14.492;2022-09-13T04:12:10;7.82;87.72
65470;DHT22;52067;50.710;14.492;2022-09-13T04:14:36;7.73;87.62
65470;DHT22;52067;50.710;14.492;2022-09-13T04:17:01;7.63;87.56
65470;DHT22;52067;50.710;14.492;2022-09-13T04:19:26;7.58;88.14
65470;DHT22;52067;50.710;14.492;2022-09-13T04:21:53;7.31;88.71
65470;DHT22;52067;50.710;14.492;2022-09-13T04:24:23;7.46;88.86
65470;DHT22;52067;50.710;14.492;2022-09-13T04:26:50;7.68;88.31
65470;DHT22;52067;50.710;14.492;2022-09-13T04:29:16;7.61;88.82
65470;DHT22;52067;50.710;14.492;2022-09-13T04:31:45;7.66;88.62
65470;DHT22;52067;50.710;14.492;2022-09-13T04:34:11;7.74;88.25
65470;DHT22;52067;50.710;14.492;2022-09-13T04:36:37;7.61;88.45
65470;DHT22;52067;50.710;14.492;2022-09-13T04:39:03;7.54;88.63
65470;DHT22;52067;50.710;14.492;2022-09-13T04:41:28;7.74;87.99
65470;DHT22;52067;50.710;14.492;2022-09-13T04:43:54;7.60;87.81
65470;DHT22;52067;50.710;14.492;2022-09-13T04:46:19;7.50;88.54
65470;DHT22;52067;50.710;14.492;2022-09-13T04:48:49;7.61;88.64
65470;DHT22;52067;50.710;14.492;2022-09-13T04:51:15;7.73;88.17
65470;DHT22;52067;50.710;14.492;2022-09-13T04:53:45;7.84;87.82
65470;DHT22;52067;50.710;14.492;2022-09-13T04:56:10;7.81;87.50
65470;DHT22;52067;50.710;14.492;2022-09-13T04:58:38;7.74;88.59
65470;DHT22;52067;50.710;14.492;2022-09-13T05:01:06;7.64;88.76
65470;DHT22;52067;50.710;14.492;2022-09-13T05:03:32;7.92;88.23
65470;DHT22;52067;50.710;14.492;2022-09-13T05:06:06;7.58;88.69
65470;DHT22;52067;50.710;14.492;2022-09-13T05:08:32;7.48;89.10
65470;DHT22;52067;50.710;14.492;2022-09-13T05:10:58;7.60;89.36
65470;DHT22;52067;50.710;14.492;2022-09-13T05:13:27;7.57;89.38
65470;DHT22;52067;50.710;14.492;2022-09-13T05:15:56;7.92;89.07
65470;DHT22;52067;50.710;14.492;2022-09-13T05:18:28;8.01;89.01
65470;DHT22;52067;50.710;14.492;2022-09-13T05:20:54;8.02;88.94
65470;DHT22;52067;50.710;14.492;2022-09-13T05:23:21;8.25;88.07
65470;DHT22;52067;50.710;14.492;2022-09-13T05:28:19;8.42;88.24
65470;DHT22;52067;50.710;14.492;2022-09-13T05:30:59;8.63;87.92
65470;DHT22;52067;50.710;14.492;2022-09-13T05:33:26;8.54;87.64
65470;DHT22;52067;50.710;14.492;2022-09-13T05:35:52;8.74;87.43
65470;DHT22;52067;50.710;14.492;2022-09-13T05:38:18;8.85;87.03
65470;DHT22;52067;50.710;14.492;2022-09-13T05:40:43;8.67;87.70
65470;DHT22;52067;50.710;14.492;2022-09-13T05:43:09;8.91;87.63
65470;DHT22;52067;50.710;14.492;2022-09-13T05:45:34;8.80;87.42
65470;DHT22;52067;50.710;14.492;2022-09-13T05:48:00;8.81;87.64
65470;DHT22;52067;50.710;14.492;2022-09-13T05:50:25;9.12;86.90
65470;DHT22;52067;50.710;14.492;2022-09-13T05:52:54;9.16;86.99
65470;DHT22;52067;50.710;14.492;2022-09-13T05:55:20;9.50;86.82
65470;DHT22;52067;50.710;14.492;2022-09-13T05:57:46;9.60;86.97
65470;DHT22;52067;50.710;14.492;2022-09-13T06:00:12;9.82;86.78
65470;DHT22;52067;50.710;14.492;2022-09-13T06:02:38;10.04;86.49
65470;DHT22;52067;50.710;14.492;2022-09-13T06:05:03;10.14;86.03
65470;DHT22;52067;50.710;14.492;2022-09-13T06:07:29;10.28;85.91
65470;DHT22;52067;50.710;14.492;2022-09-13T06:09:54;10.32;86.37
65470;DHT22;52067;50.710;14.492;2022-09-13T06:12:19;10.12;86.69
65470;DHT22;52067;50.710;14.492;2022-09-13T06:14:45;10.45;87.22
65470;DHT22;52067;50.710;14.492;2022-09-13T06:17:10;10.53;87.07
65470;DHT22;52067;50.710;14.492;2022-09-13T06:19:35;10.76;86.46
65470;DHT22;52067;50.710;14.492;2022-09-13T06:22:01;10.97;86.47
65470;DHT22;52067;50.710;14.492;2022-09-13T06:24:26;11.10;87.08
65470;DHT22;52067;50.710;14.492;2022-09-13T06:26:52;11.17;86.91
65470;DHT22;52067;50.710;14.492;2022-09-13T06:29:18;11.41;87.01
65470;DHT22;52067;50.710;14.492;2022-09-13T06:31:43;11.48;86.61
65470;DHT22;52067;50.710;14.492;2022-09-13T06:34:10;11.72;86.72
65470;DHT22;52067;50.710;14.492;2022-09-13T06:36:40;12.07;86.71
65470;DHT22;52067;50.710;14.492;2022-09-13T06:39:06;12.36;86.85
65470;DHT22;52067;50.710;14.492;2022-09-13T06:41:32;12.50;86.72
65470;DHT22;52067;50.710;14.492;2022-09-13T06:43:59;12.56;86.35
65470;DHT22;52067;50.710;14.492;2022-09-13T06:46:30;12.57;86.54
65470;DHT22;52067;50.710;14.492;2022-09-13T06:48:58;12.44;86.79
65470;DHT22;52067;50.710;14.492;2022-09-13T06:51:25;12.37;86.72
65470;DHT22;52067;50.710;14.492;2022-09-13T06:53:51;12.43;86.98
65470;DHT22;52067;50.710;14.492;2022-09-13T06:56:25;12.69;88.18
65470;DHT22;52067;50.710;14.492;2022-09-13T06:58:54;12.83;87.33
65470;DHT22;52067;50.710;14.492;2022-09-13T07:01:26;13.02;87.92
65470;DHT22;52067;50.710;14.492;2022-09-13T07:04:06;13.16;85.82
65470;DHT22;52067;50.710;14.492;2022-09-13T07:06:35;13.36;85.02
65470;DHT22;52067;50.710;14.492;2022-09-13T07:09:02;13.32;83.79
65470;DHT22;52067;50.710;14.492;2022-09-13T07:11:30;13.57;83.67
65470;DHT22;52067;50.710;14.492;2022-09-13T07:13:57;13.90;82.38
65470;DHT22;52067;50.710;14.492;2022-09-13T07:16:28;14.12;82.18
65470;DHT22;52067;50.710;14.492;2022-09-13T07:18:58;14.20;81.18
65470;DHT22;52067;50.710;14.492;2022-09-13T07:21:25;14.41;80.92
65470;DHT22;52067;50.710;14.492;2022-09-13T07:23:52;14.36;79.96
65470;DHT22;52067;50.710;14.492;2022-09-13T07:26:18;14.39;80.65
65470;DHT22;52067;50.710;14.492;2022-09-13T07:28:46;14.39;80.40
65470;DHT22;52067;50.710;14.492;2022-09-13T07:31:26;14.45;80.83
65470;DHT22;52067;50.710;14.492;2022-09-13T07:33:55;14.79;81.07
65470;DHT22;52067;50.710;14.492;2022-09-13T07:36:22;14.77;78.41
65470;DHT22;52067;50.710;14.492;2022-09-13T07:38:48;14.62;78.80
65470;DHT22;52067;50.710;14.492;2022-09-13T07:41:17;14.89;81.09
65470;DHT22;52067;50.710;14.492;2022-09-13T07:43:42;15.23;80.29
65470;DHT22;52067;50.710;14.492;2022-09-13T07:46:14;15.70;77.44
65470;DHT22;52067;50.710;14.492;2022-09-13T07:48:42;15.63;76.94
65470;DHT22;52067;50.710;14.492;2022-09-13T07:51:12;15.66;77.31
65470;DHT22;52067;50.710;14.492;2022-09-13T07:53:39;15.65;75.96
65470;DHT22;52067;50.710;14.492;2022-09-13T07:58:34;15.69;76.60
65470;DHT22;52067;50.710;14.492;2022-09-13T08:01:08;15.81;76.11
65470;DHT22;52067;50.710;14.492;2022-09-13T08:03:34;16.12;75.00
65470;DHT22;52067;50.710;14.492;2022-09-13T08:06:00;16.24;74.64
65470;DHT22;52067;50.710;14.492;2022-09-13T08:08:27;16.02;75.14
65470;DHT22;52067;50.710;14.492;2022-09-13T08:10:53;16.16;76.36
65470;DHT22;52067;50.710;14.492;2022-09-13T08:13:18;16.05;75.11
65470;DHT22;52067;50.710;14.492;2022-09-13T08:15:44;16.23;74.89
65470;DHT22;52067;50.710;14.492;2022-09-13T08:18:09;16.37;74.61
65470;DHT22;52067;50.710;14.492;2022-09-13T08:20:36;16.37;74.51
65470;DHT22;52067;50.710;14.492;2022-09-13T08:23:06;16.57;72.52
65470;DHT22;52067;50.710;14.492;2022-09-13T08:25:35;16.84;72.91
65470;DHT22;52067;50.710;14.492;2022-09-13T08:28:05;16.65;73.23
65470;DHT22;52067;50.710;14.492;2022-09-13T08:30:30;16.36;74.25
65470;DHT22;52067;50.710;14.492;2022-09-13T08:33:01;16.44;73.02
65470;DHT22;52067;50.710;14.492;2022-09-13T08:35:27;16.45;73.48
65470;DHT22;52067;50.710;14.492;2022-09-13T08:37:53;16.05;74.82
65470;DHT22;52067;50.710;14.492;2022-09-13T08:40:21;16.24;75.40
65470;DHT22;52067;50.710;14.492;2022-09-13T08:45:15;16.69;73.97
65470;DHT22;52067;50.710;14.492;2022-09-13T08:47:45;16.81;74.72
65470;DHT22;52067;50.710;14.492;2022-09-13T08:52:50;16.57;75.08
65470;DHT22;52067;50.710;14.492;2022-09-13T09:00:44;16.13;76.17
65470;DHT22;52067;50.710;14.492;2022-09-13T09:03:30;16.05;76.43
65470;DHT22;52067;50.710;14.492;2022-09-13T09:06:00;16.02;78.42
65470;DHT22;52067;50.710;14.492;2022-09-13T09:08:34;16.00;78.69
65470;DHT22;52067;50.710;14.492;2022-09-13T09:11:12;15.97;78.28
65470;DHT22;52067;50.710;14.492;2022-09-13T09:14:01;16.07;78.55
65470;DHT22;52067;50.710;14.492;2022-09-13T09:21:48;16.30;79.37
65470;DHT22;52067;50.710;14.492;2022-09-13T09:24:20;16.23;79.07
65470;DHT22;52067;50.710;14.492;2022-09-13T09:26:46;15.72;81.11
65470;DHT22;52067;50.710;14.492;2022-09-13T09:29:23;15.83;82.66
65470;DHT22;52067;50.710;14.492;2022-09-13T09:37:29;15.82;81.82
65470;DHT22;52067;50.710;14.492;2022-09-13T09:39:58;15.68;82.67
65470;DHT22;52067;50.710;14.492;2022-09-13T09:42:28;16.00;82.11
65470;DHT22;52067;50.710;14.492;2022-09-13T09:45:15;16.36;80.10
65470;DHT22;52067;50.710;14.492;2022-09-13T09:47:49;16.16;81.71
65470;DHT22;52067;50.710;14.492;2022-09-13T09:50:17;16.24;81.80
65470;DHT22;52067;50.710;14.492;2022-09-13T09:53:23;16.12;81.30
65470;DHT22;52067;50.710;14.492;2022-09-13T09:55:59;15.76;83.28
65470;DHT22;52067;50.710;14.492;2022-09-13T09:58:45;15.79;82.49
65470;DHT22;52067;50.710;14.492;2022-09-13T10:06:27;15.89;82.41
65470;DHT22;52067;50.710;14.492;2022-09-13T10:09:05;15.99;82.71
65470;DHT22;52067;50.710;14.492;2022-09-13T10:11:57;16.13;81.63
65470;DHT22;52067;50.710;14.492;2022-09-13T10:14:44;16.23;81.02
65470;DHT22;52067;50.710;14.492;2022-09-13T10:17:20;16.50;80.10
65470;DHT22;52067;50.710;14.492;2022-09-13T10:19:56;16.85;79.86
65470;DHT22;52067;50.710;14.492;2022-09-13T10:22:27;17.19;79.54
65470;DHT22;52067;50.710;14.492;2022-09-13T10:24:53;16.94;79.03
65470;DHT22;52067;50.710;14.492;2022-09-13T10:27:32;17.33;78.55
65470;DHT22;52067;50.710;14.492;2022-09-13T10:30:00;17.24;76.90
65470;DHT22;52067;50.710;14.492;2022-09-13T10:32:28;17.15;79.10
65470;DHT22;52067;50.710;14.492;2022-09-13T10:34:55;17.43;77.85
65470;DHT22;52067;50.710;14.492;2022-09-13T10:37:28;17.84;77.09
65470;DHT22;52067;50.710;14.492;2022-09-13T10:42:26;17.60;77.76
65470;DHT22;52067;50.710;14.492;2022-09-13T10:44:55;18.24;74.97
65470;DHT22;52067;50.710;14.492;2022-09-13T10:47:25;18.38;75.03
65470;DHT22;52067;50.710;14.492;2022-09-13T10:49:56;18.19;75.65
65470;DHT22;52067;50.710;14.492;2022-09-13T10:52:50;18.29;74.99
65470;DHT22;52067;50.710;14.492;2022-09-13T10:57:49;18.70;71.74
65470;DHT22;52067;50.710;14.492;2022-09-13T11:00:20;18.56;70.66
65470;DHT22;52067;50.710;14.492;2022-09-13T11:13:52;18.96;69.66
65470;DHT22;52067;50.710;14.492;2022-09-13T11:19:10;19.45;68.73
65470;DHT22;52067;50.710;14.492;2022-09-13T11:21:55;19.89;67.32
65470;DHT22;52067;50.710;14.492;2022-09-13T11:29:53;19.79;66.09
65470;DHT22;52067;50.710;14.492;2022-09-13T11:40:45;19.96;65.18
65470;DHT22;52067;50.710;14.492;2022-09-13T11:46:16;21.39;60.39
65470;DHT22;52067;50.710;14.492;2022-09-13T11:49:09;21.70;60.39
65470;DHT22;52067;50.710;14.492;2022-09-13T11:56:48;21.81;61.80
65470;DHT22;52067;50.710;14.492;2022-09-13T12:01:57;21.10;62.22
65470;DHT22;52067;50.710;14.492;2022-09-13T12:04:36;21.57;61.68
65470;DHT22;52067;50.710;14.492;2022-09-13T12:07:13;23.80;57.10
65470;DHT22;52067;50.710;14.492;2022-09-13T12:09:52;23.41;53.97
65470;DHT22;52067;50.710;14.492;2022-09-13T12:12:19;25.16;51.85
65470;DHT22;52067;50.710;14.492;2022-09-13T12:14:54;25.39;50.43
65470;DHT22;52067;50.710;14.492;2022-09-13T12:17:26;25.51;51.98
65470;DHT22;52067;50.710;14.492;2022-09-13T12:19:55;25.02;52.71
65470;DHT22;52067;50.710;14.492;2022-09-13T12:22:23;24.68;51.65
65470;DHT22;52067;50.710;14.492;2022-09-13T12:24:55;23.93;53.37
65470;DHT22;52067;50.710;14.492;2022-09-13T12:27:33;23.59;55.20
65470;DHT22;52067;50.710;14.492;2022-09-13T12:30:08;23.06;56.27
65470;DHT22;52067;50.710;14.492;2022-09-13T12:32:38;22.25;58.24
65470;DHT22;52067;50.710;14.492;2022-09-13T12:35:08;22.53;56.39
65470;DHT22;52067;50.710;14.492;2022-09-13T12:38:18;22.06;58.10
65470;DHT22;52067;50.710;14.492;2022-09-13T12:55:27;22.28;57.23
65470;DHT22;52067;50.710;14.492;2022-09-13T13:01:14;22.78;56.16
65470;DHT22;52067;50.710;14.492;2022-09-13T13:04:04;24.68;53.55
65470;DHT22;52067;50.710;14.492;2022-09-13T13:06:34;24.85;50.93
65470;DHT22;52067;50.710;14.492;2022-09-13T13:12:05;23.79;53.07
65470;DHT22;52067;50.710;14.492;2022-09-13T13:17:34;23.80;52.74
65470;DHT22;52067;50.710;14.492;2022-09-13T13:25:57;23.73;52.00
65470;DHT22;52067;50.710;14.492;2022-09-13T13:34:24;23.46;54.15
65470;DHT22;52067;50.710;14.492;2022-09-13T13:36:51;26.56;48.09
65470;DHT22;52067;50.710;14.492;2022-09-13T13:59:52;29.18;38.63
65470;DHT22;52067;50.710;14.492;2022-09-13T14:02:24;29.26;38.89
65470;DHT22;52067;50.710;14.492;2022-09-13T14:13:43;29.95;37.99
65470;DHT22;52067;50.710;14.492;2022-09-13T14:19:28;29.89;38.32
65470;DHT22;52067;50.710;14.492;2022-09-13T14:22:05;30.09;38.14
65470;DHT22;52067;50.710;14.492;2022-09-13T14:24:39;30.22;37.21
65470;DHT22;52067;50.710;14.492;2022-09-13T14:27:12;28.76;41.00
65470;DHT22;52067;50.710;14.492;2022-09-13T14:29:38;29.54;39.09
65470;DHT22;52067;50.710;14.492;2022-09-13T14:32:05;29.45;39.14
65470;DHT22;52067;50.710;14.492;2022-09-13T14:34:32;29.29;40.45
65470;DHT22;52067;50.710;14.492;2022-09-13T14:37:00;28.47;41.41
65470;DHT22;52067;50.710;14.492;2022-09-13T14:39:27;29.50;40.18
65470;DHT22;52067;50.710;14.492;2022-09-13T14:44:30;29.74;38.69
65470;DHT22;52067;50.710;14.492;2022-09-13T14:47:05;29.23;39.90
65470;DHT22;52067;50.710;14.492;2022-09-13T14:49:42;29.47;39.65
65470;DHT22;52067;50.710;14.492;2022-09-13T14:52:48;29.56;39.27
65470;DHT22;52067;50.710;14.492;2022-09-13T14:55:13;28.64;40.94
65470;DHT22;52067;50.710;14.492;2022-09-13T14:57:45;27.04;44.52
65470;DHT22;52067;50.710;14.492;2022-09-13T15:00:17;27.81;43.29
65470;DHT22;52067;50.710;14.492;2022-09-13T15:03:09;28.23;42.47
65470;DHT22;52067;50.710;14.492;2022-09-13T15:05:35;27.14;45.05
65470;DHT22;52067;50.710;14.492;2022-09-13T15:11:03;25.59;48.34
65470;DHT22;52067;50.710;14.492;2022-09-13T15:13:30;25.57;48.54
65470;DHT22;52067;50.710;14.492;2022-09-13T15:15:55;25.01;50.33
65470;DHT22;52067;50.710;14.492;2022-09-13T15:18:29;24.52;51.39
65470;DHT22;52067;50.710;14.492;2022-09-13T15:21:04;24.20;52.19
65470;DHT22;52067;50.710;14.492;2022-09-13T15:23:33;23.72;54.03
65470;DHT22;52067;50.710;14.492;2022-09-13T15:28:53;23.31;54.70
65470;DHT22;52067;50.710;14.492;2022-09-13T15:31:24;23.10;55.55
65470;DHT22;52067;50.710;14.492;2022-09-13T15:36:41;22.83;56.47
65470;DHT22;52067;50.710;14.492;2022-09-13T15:41:36;22.61;57.47
65470;DHT22;52067;50.710;14.492;2022-09-13T15:44:04;22.60;57.30
65470;DHT22;52067;50.710;14.492;2022-09-13T15:46:30;22.52;57.03
65470;DHT22;52067;50.710;14.492;2022-09-13T15:48:58;22.46;57.62
65470;DHT22;52067;50.710;14.492;2022-09-13T15:51:24;22.40;57.97
65470;DHT22;52067;50.710;14.492;2022-09-13T15:53:50;22.50;58.70
65470;DHT22;52067;50.710;14.492;2022-09-13T15:56:21;22.36;57.55
65470;DHT22;52067;50.710;14.492;2022-09-13T15:58:48;22.29;59.17
65470;DHT22;52067;50.710;14.492;2022-09-13T16:01:15;22.36;60.56
65470;DHT22;52067;50.710;14.492;2022-09-13T16:03:41;22.33;59.01
65470;DHT22;52067;50.710;14.492;2022-09-13T16:06:07;22.39;59.00
65470;DHT22;52067;50.710;14.492;2022-09-13T16:08:37;22.21;59.32
65470;DHT22;52067;50.710;14.492;2022-09-13T16:11:02;22.32;60.07
65470;DHT22;52067;50.710;14.492;2022-09-13T16:13:29;22.32;61.38
65470;DHT22;52067;50.710;14.492;2022-09-13T16:15:54;22.45;59.76
65470;DHT22;52067;50.710;14.492;2022-09-13T16:18:21;22.53;59.92
65470;DHT22;52067;50.710;14.492;2022-09-13T16:20:47;22.16;60.16
65470;DHT22;52067;50.710;14.492;2022-09-13T16:23:12;22.29;61.42
65470;DHT22;52067;50.710;14.492;2022-09-13T16:25:38;22.42;60.19
65470;DHT22;52067;50.710;14.492;2022-09-13T16:28:05;22.45;59.85
65470;DHT22;52067;50.710;14.492;2022-09-13T16:30:31;22.40;59.97
65470;DHT22;52067;50.710;14.492;2022-09-13T16:32:58;22.22;60.65
65470;DHT22;52067;50.710;14.492;2022-09-13T16:35:27;21.97;62.12
65470;DHT22;52067;50.710;14.492;2022-09-13T16:37:53;22.01;63.13
65470;DHT22;52067;50.710;14.492;2022-09-13T16:40:19;22.05;63.47
65470;DHT22;52067;50.710;14.492;2022-09-13T16:42:44;21.78;65.68
65470;DHT22;52067;50.710;14.492;2022-09-13T16:45:10;21.82;65.69
65470;DHT22;52067;50.710;14.492;2022-09-13T16:47:37;21.33;67.35
65470;DHT22;52067;50.710;14.492;2022-09-13T16:50:04;21.23;67.72
65470;DHT22;52067;50.710;14.492;2022-09-13T16:52:31;21.19;67.91
65470;DHT22;52067;50.710;14.492;2022-09-13T16:54:57;20.96;69.04
65470;DHT22;52067;50.710;14.492;2022-09-13T16:57:23;20.84;69.50
65470;DHT22;52067;50.710;14.492;2022-09-13T16:59:49;20.49;70.68
65470;DHT22;52067;50.710;14.492;2022-09-13T17:02:17;20.26;70.79
65470;DHT22;52067;50.710;14.492;2022-09-13T17:04:42;20.24;71.14
65470;DHT22;52067;50.710;14.492;2022-09-13T17:07:08;20.21;71.42
65470;DHT22;52067;50.710;14.492;2022-09-13T17:09:33;19.49;74.54
65470;DHT22;52067;50.710;14.492;2022-09-13T17:11:59;19.38;75.63
65470;DHT22;52067;50.710;14.492;2022-09-13T17:14:25;19.49;75.29
65470;DHT22;52067;50.710;14.492;2022-09-13T17:16:53;19.45;75.24
65470;DHT22;52067;50.710;14.492;2022-09-13T17:19:22;19.42;75.17
65470;DHT22;52067;50.710;14.492;2022-09-13T17:21:48;19.22;75.97
65470;DHT22;52067;50.710;14.492;2022-09-13T17:24:14;19.18;76.03
65470;DHT22;52067;50.710;14.492;2022-09-13T17:26:41;19.03;76.50
65470;DHT22;52067;50.710;14.492;2022-09-13T17:29:07;18.93;77.61
65470;DHT22;52067;50.710;14.492;2022-09-13T17:31:32;18.91;77.28
65470;DHT22;52067;50.710;14.492;2022-09-13T17:33:58;18.89;77.71
65470;DHT22;52067;50.710;14.492;2022-09-13T17:36:23;18.96;77.52
65470;DHT22;52067;50.710;14.492;2022-09-13T17:38:53;18.83;78.15
65470;DHT22;52067;50.710;14.492;2022-09-13T17:41:19;18.71;78.27
65470;DHT22;52067;50.710;14.492;2022-09-13T17:43:45;18.15;80.78
65470;DHT22;52067;50.710;14.492;2022-09-13T17:46:22;18.35;79.72
65470;DHT22;52067;50.710;14.492;2022-09-13T17:48:50;17.88;81.68
65470;DHT22;52067;50.710;14.492;2022-09-13T17:51:18;18.04;81.34
65470;DHT22;52067;50.710;14.492;2022-09-13T17:53:49;18.15;80.94
65470;DHT22;52067;50.710;14.492;2022-09-13T17:56:19;18.12;80.98
65470;DHT22;52067;50.710;14.492;2022-09-13T17:58:45;18.16;81.05
65470;DHT22;52067;50.710;14.492;2022-09-13T18:01:11;17.84;81.98
65470;DHT22;52067;50.710;14.492;2022-09-13T18:03:37;17.92;81.13
65470;DHT22;52067;50.710;14.492;2022-09-13T18:06:04;17.98;81.01
65470;DHT22;52067;50.710;14.492;2022-09-13T18:08:32;17.98;80.62
65470;DHT22;52067;50.710;14.492;2022-09-13T18:11:07;17.81;81.51
65470;DHT22;52067;50.710;14.492;2022-09-13T18:13:33;17.77;81.16
65470;DHT22;52067;50.710;14.492;2022-09-13T18:16:00;17.69;81.62
65470;DHT22;52067;50.710;14.492;2022-09-13T18:18:26;17.32;83.34
65470;DHT22;52067;50.710;14.492;2022-09-13T18:20:52;17.44;82.94
65470;DHT22;52067;50.710;14.492;2022-09-13T18:23:17;17.37;82.90
65470;DHT22;52067;50.710;14.492;2022-09-13T18:25:43;17.43;82.46
65470;DHT22;52067;50.710;14.492;2022-09-13T18:28:09;17.36;82.07
65470;DHT22;52067;50.710;14.492;2022-09-13T18:30:34;17.33;81.95
65470;DHT22;52067;50.710;14.492;2022-09-13T18:32:59;17.36;81.87
65470;DHT22;52067;50.710;14.492;2022-09-13T18:35:25;17.26;82.06
65470;DHT22;52067;50.710;14.492;2022-09-13T18:37:50;17.23;82.03
65470;DHT22;52067;50.710;14.492;2022-09-13T18:40:16;16.74;83.87
65470;DHT22;52067;50.710;14.492;2022-09-13T18:42:41;16.67;84.53
65470;DHT22;52067;50.710;14.492;2022-09-13T18:45:07;16.69;84.24
65470;DHT22;52067;50.710;14.492;2022-09-13T18:47:33;16.57;84.04
65470;DHT22;52067;50.710;14.492;2022-09-13T18:49:58;16.37;84.99
65470;DHT22;52067;50.710;14.492;2022-09-13T18:52:23;16.43;84.77
65470;DHT22;52067;50.710;14.492;2022-09-13T18:54:49;16.07;85.74
65470;DHT22;52067;50.710;14.492;2022-09-13T18:57:14;16.05;86.17
65470;DHT22;52067;50.710;14.492;2022-09-13T18:59:39;16.02;85.78
65470;DHT22;52067;50.710;14.492;2022-09-13T19:02:05;16.02;85.74
65470;DHT22;52067;50.710;14.492;2022-09-13T19:04:30;15.97;85.08
65470;DHT22;52067;50.710;14.492;2022-09-13T19:06:57;15.72;85.94
65470;DHT22;52067;50.710;14.492;2022-09-13T19:09:23;15.49;87.11
65470;DHT22;52067;50.710;14.492;2022-09-13T19:11:50;15.51;86.75
65470;DHT22;52067;50.710;14.492;2022-09-13T19:14:23;15.27;87.30
65470;DHT22;52067;50.710;14.492;2022-09-13T19:16:51;15.47;86.47